Boulevard, New York
Current Conditions -  °F | °C
As of 6:51 PM on Friday 21 Nov 2014 (Local Time) from KLGA Reporting Station
Few Clouds Few Clouds  
Wind Chill: 24°   Ceiling: Unl
Heat Index: 33°   Visibility: 10mi
Dew Point: 11°   Wind: 12mph
Humidity: 40%   Direction: 340°NNW
Pressure: 30.47"   Gusts: 20mph
Location:  40.8106°N, 73.8845°W
Report Text: KLGA 212351Z 34010G17KT 10SM FEW060 01/M12 A3047 RMK AO2 SLP319 T00061117 10028 20006 51036
Loading
Personal Weather Stations






























Interactive Weather Map New forecast layout! Learn more

10-Day Weather Forecast

Advertisements
Track Severe Weather on mobile